Time;durP1;ratioP1;P1;durP2;ratioP2;P2;SDS_P1;SDS_P2;PMS_P1;PMS_P2;Temp;Humidity;BMP_temperature;BMP_pressure;BME280_temperature;BME280_humidity;BME280_pressure;Samples;Min_cycle;Max_cycle;Signal;HPM_P1;HPM_P2
2022/03/29 00:01:22;;;;;;;13.70;8.37;;;6.10;99.90;5.20;99476;;;;573625;246;24108;-80
2022/03/29 00:03:50;;;;;;;14.23;9.30;;;6.00;99.90;5.10;99471;;;;573634;246;24055;-78
2022/03/29 00:06:23;;;;;;;15.77;8.23;;;5.90;99.90;5.00;99477;;;;573740;246;24099;-77
2022/03/29 00:08:50;;;;;;;20.47;10.27;;;5.90;99.90;5.00;99468;;;;581871;245;24118;-77
2022/03/29 00:11:17;;;;;;;20.10;10.93;;;5.80;99.90;4.90;99468;;;;573364;246;24071;-78
2022/03/29 00:13:43;;;;;;;21.87;10.07;;;5.70;99.90;4.80;99454;;;;573021;246;24133;-78
2022/03/29 00:16:11;;;;;;;15.33;9.13;;;5.60;99.90;4.80;99452;;;;573160;246;24068;-78
2022/03/29 00:18:39;;;;;;;19.20;10.70;;;5.60;99.90;4.80;99467;;;;573095;246;24152;-78
2022/03/29 00:21:07;;;;;;;19.47;10.43;;;5.60;99.90;4.80;99461;;;;573189;246;24206;-77
2022/03/29 00:23:35;;;;;;;17.30;10.13;;;5.60;99.90;4.80;99453;;;;572717;246;24068;-78
2022/03/29 00:26:03;;;;;;;14.73;9.50;;;5.60;99.90;4.90;99454;;;;572826;246;24105;-77
2022/03/29 00:28:31;;;;;;;22.77;10.90;;;5.70;99.90;4.90;99449;;;;572818;246;24120;-77
2022/03/29 00:30:59;;;;;;;18.20;11.07;;;5.70;99.90;5.00;99447;;;;572945;246;24106;-78
2022/03/29 00:33:27;;;;;;;14.03;8.53;;;5.80;99.90;5.10;99445;;;;572781;246;24126;-78
2022/03/29 00:35:55;;;;;;;19.20;8.93;;;6.00;99.90;5.10;99455;;;;572751;246;24073;-79
2022/03/29 00:38:23;;;;;;;17.03;9.33;;;5.90;99.90;5.30;99448;;;;572956;246;24114;-77
2022/03/29 00:40:51;;;;;;;18.33;9.77;;;6.10;99.90;5.30;99449;;;;572930;246;24071;-80
2022/03/29 00:43:22;;;;;;;21.13;10.20;;;6.10;99.90;5.40;99447;;;;573090;246;24059;-78
2022/03/29 00:45:47;;;;;;;17.67;9.13;;;6.20;99.90;5.50;99447;;;;572884;246;24086;-81
2022/03/29 00:48:15;;;;;;;23.23;11.07;;;6.30;99.90;5.50;99451;;;;574494;246;24086;-79
2022/03/29 00:50:46;;;;;;;15.17;8.37;;;6.40;99.90;5.50;99441;;;;574141;246;24108;-77
2022/03/29 00:53:11;;;;;;;22.37;10.43;;;6.40;99.90;5.60;99443;;;;582011;246;24085;-79
2022/03/29 00:55:42;;;;;;;18.23;9.67;;;6.40;99.90;5.60;99436;;;;573721;246;24084;-79
2022/03/29 00:58:09;;;;;;;14.97;6.63;;;6.40;99.90;5.60;99433;;;;573243;246;24080;-78
2022/03/29 01:00:37;;;;;;;17.93;10.17;;;6.50;99.90;5.60;99429;;;;573902;246;24098;-78
2022/03/29 01:03:05;;;;;;;15.13;6.57;;;6.50;99.90;5.60;99430;;;;573699;246;24071;-81
2022/03/29 01:05:34;;;;;;;16.63;10.57;;;6.50;99.90;5.60;99438;;;;573859;246;24086;-80
2022/03/29 01:08:02;;;;;;;19.70;8.80;;;6.40;99.90;5.60;99431;;;;573702;246;24066;-77
2022/03/29 01:10:32;;;;;;;13.63;8.07;;;6.40;99.90;5.60;99427;;;;573560;246;24062;-80
2022/03/29 01:12:58;;;;;;;14.73;9.30;;;6.40;99.90;5.50;99423;;;;583269;246;24075;-81
2022/03/29 01:15:28;;;;;;;13.40;7.77;;;6.30;99.90;5.40;99431;;;;573810;246;24058;-78
2022/03/29 01:17:57;;;;;;;18.13;8.97;;;6.20;99.90;5.30;99421;;;;574731;246;24132;-78
2022/03/29 01:20:28;;;;;;;12.03;5.77;;;6.10;99.90;5.20;99427;;;;574614;246;24075;-77
2022/03/29 01:22:54;;;;;;;16.83;8.60;;;6.00;99.90;5.00;99417;;;;571287;246;25136;-77
2022/03/29 01:25:19;;;;;;;17.90;8.93;;;5.90;99.90;4.90;99414;;;;569142;246;24151;-78
2022/03/29 01:27:47;;;;;;;23.83;9.83;;;5.80;99.90;4.80;99409;;;;568852;246;24083;-78
2022/03/29 01:30:19;;;;;;;12.77;7.20;;;5.60;99.90;4.70;99413;;;;573068;246;24085;-80
2022/03/29 01:32:47;;;;;;;21.80;9.20;;;5.50;99.90;4.60;99412;;;;572802;246;24125;-77
2022/03/29 01:35:15;;;;;;;11.27;7.20;;;5.50;99.90;4.60;99412;;;;569247;246;24079;-78
2022/03/29 01:37:43;;;;;;;20.63;9.67;;;5.40;99.90;4.50;99391;;;;568959;246;24121;-77
2022/03/29 01:40:15;;;;;;;15.93;9.33;;;5.30;99.90;4.40;99409;;;;572782;246;24070;-78
2022/03/29 01:42:43;;;;;;;15.60;7.40;;;5.30;99.90;4.40;99399;;;;572538;246;24079;-79
2022/03/29 01:45:08;;;;;;;22.50;9.27;;;5.20;99.90;4.30;99398;;;;573212;246;25134;-79
2022/03/29 01:47:37;;;;;;;20.43;8.80;;;5.10;99.90;4.30;99395;;;;572933;246;24105;-78
2022/03/29 01:50:08;;;;;;;19.03;7.00;;;5.10;99.90;4.20;99390;;;;572743;246;24070;-77
2022/03/29 01:52:42;;;;;;;14.50;7.80;;;5.10;99.90;4.20;99394;;;;581001;246;24063;-78
2022/03/29 01:55:10;;;;;;;17.47;8.27;;;5.10;99.90;4.20;99389;;;;573322;244;24534;-78
2022/03/29 01:57:38;;;;;;;23.63;8.87;;;5.00;99.90;4.20;99394;;;;572767;246;24107;-81
2022/03/29 02:02:56;;;;;;;17.83;7.80;;;5.00;99.90;4.20;99386;;;;574083;246;24058;-80
2022/03/29 02:05:20;;;;;;;21.03;9.70;;;5.00;99.90;4.20;99394;;;;570762;246;24067;-79
2022/03/29 02:07:52;;;;;;;17.40;8.60;;;5.10;99.90;4.20;99403;;;;573987;246;24099;-80
2022/03/29 02:10:23;;;;;;;18.87;8.57;;;5.10;99.90;4.30;99391;;;;573409;246;24078;-80
2022/03/29 02:12:51;;;;;;;17.87;8.10;;;5.20;99.90;4.40;99391;;;;569667;246;24156;-82
2022/03/29 02:15:15;;;;;;;14.00;7.97;;;5.20;99.90;4.50;99390;;;;569921;246;24071;-79
2022/03/29 02:17:46;;;;;;;19.83;6.23;;;5.30;99.90;4.60;99398;;;;573816;246;24058;-80
2022/03/29 02:20:15;;;;;;;17.83;8.83;;;5.40;99.90;4.70;99399;;;;573307;246;24085;-78
2022/03/29 02:22:39;;;;;;;16.00;9.30;;;5.50;99.90;4.70;99402;;;;581651;246;24068;-78
2022/03/29 02:25:07;;;;;;;23.33;9.33;;;5.60;99.90;4.80;99395;;;;573447;246;24083;-78
2022/03/29 02:27:36;;;;;;;15.03;8.40;;;5.70;99.90;4.80;99398;;;;573162;246;24118;-77
2022/03/29 02:30:04;;;;;;;14.97;7.73;;;5.70;99.90;4.90;99407;;;;572984;246;24080;-78
2022/03/29 02:32:32;;;;;;;21.97;7.37;;;5.80;99.90;5.00;99403;;;;573160;246;24098;-78
2022/03/29 02:34:59;;;;;;;18.50;8.83;;;5.80;99.90;5.00;99408;;;;572954;246;24064;-76
2022/03/29 02:37:27;;;;;;;20.40;8.70;;;5.80;99.90;5.00;99407;;;;572682;246;24124;-77
2022/03/29 02:39:55;;;;;;;10.33;6.40;;;5.90;99.90;5.00;99410;;;;572849;246;24096;-77
2022/03/29 02:42:23;;;;;;;21.73;7.57;;;5.90;99.90;5.00;99409;;;;572801;246;24130;-77
2022/03/29 02:44:51;;;;;;;17.13;8.57;;;5.90;99.90;5.10;99405;;;;572868;246;24092;-77
2022/03/29 02:47:19;;;;;;;30.60;10.33;;;5.90;99.90;5.00;99405;;;;572757;246;24082;-77
2022/03/29 02:49:47;;;;;;;15.07;8.80;;;5.90;99.90;5.00;99407;;;;572989;246;24100;-77
2022/03/29 02:52:16;;;;;;;21.70;9.50;;;5.90;99.90;5.00;99410;;;;572932;246;24174;-79
2022/03/29 02:54:43;;;;;;;18.77;9.17;;;5.90;99.90;5.00;99409;;;;572739;246;24076;-80
2022/03/29 02:57:11;;;;;;;21.93;9.47;;;5.90;99.90;5.00;99399;;;;572845;246;24090;-78
2022/03/29 02:59:39;;;;;;;14.80;8.33;;;5.90;99.90;5.00;99406;;;;572780;246;24048;-80
2022/03/29 03:02:07;;;;;;;21.33;9.27;;;5.80;99.90;4.90;99401;;;;573205;246;24112;-80
2022/03/29 03:04:36;;;;;;;18.60;8.60;;;5.70;99.90;4.80;99402;;;;573394;246;24150;-79
2022/03/29 03:07:04;;;;;;;22.27;8.80;;;5.70;99.90;4.70;99390;;;;573342;246;24068;-78
2022/03/29 03:09:32;;;;;;;24.77;9.80;;;5.50;99.90;4.50;99398;;;;573462;244;24147;-77
2022/03/29 03:12:00;;;;;;;17.03;9.60;;;5.40;99.90;4.40;99395;;;;574217;246;24095;-78
2022/03/29 03:14:27;;;;;;;21.70;9.30;;;5.30;99.90;4.20;99395;;;;573902;246;24083;-79
2022/03/29 03:16:55;;;;;;;16.93;8.50;;;5.20;99.90;4.10;99386;;;;573696;246;24150;-77
2022/03/29 03:19:23;;;;;;;17.50;8.33;;;5.00;99.90;4.00;99393;;;;573406;246;24077;-77
2022/03/29 03:21:51;;;;;;;16.13;8.63;;;4.90;99.90;3.90;99386;;;;573302;246;24093;-77
2022/03/29 03:24:19;;;;;;;14.80;8.13;;;4.80;99.90;3.80;99397;;;;573265;246;24109;-77
2022/03/29 03:26:47;;;;;;;16.27;9.77;;;4.70;99.90;3.80;99390;;;;573359;246;24098;-77
2022/03/29 03:29:15;;;;;;;16.03;9.23;;;4.60;99.90;3.70;99388;;;;573458;246;24091;-77
2022/03/29 03:31:43;;;;;;;21.83;9.63;;;4.60;99.90;3.60;99391;;;;573366;246;24116;-78
2022/03/29 03:34:11;;;;;;;23.20;9.63;;;4.50;99.90;3.60;99385;;;;573505;246;24039;-82
2022/03/29 03:36:39;;;;;;;16.50;9.10;;;4.40;99.90;3.50;99399;;;;573469;246;24061;-81
2022/03/29 03:39:07;;;;;;;22.90;10.07;;;4.40;99.90;3.50;99397;;;;573579;246;24109;-80
2022/03/29 03:41:37;;;;;;;25.93;10.43;;;4.40;99.90;3.50;99406;;;;573681;246;24118;-80
2022/03/29 03:44:03;;;;;;;16.33;8.93;;;4.40;99.90;3.50;99409;;;;573583;246;24121;-79
2022/03/29 03:46:31;;;;;;;17.43;9.47;;;4.40;99.90;3.40;99408;;;;573457;246;24070;-78
2022/03/29 03:49:00;;;;;;;20.33;10.13;;;4.30;99.90;3.40;99402;;;;573189;246;24136;-77
2022/03/29 03:51:28;;;;;;;22.13;9.63;;;4.30;99.90;3.40;99401;;;;572835;246;24106;-78
2022/03/29 03:53:55;;;;;;;18.77;7.93;;;4.20;99.90;3.30;99415;;;;572650;246;24108;-76
2022/03/29 03:56:23;;;;;;;23.47;9.43;;;4.20;99.90;3.30;99414;;;;572773;246;24097;-77
2022/03/29 03:58:51;;;;;;;18.50;8.67;;;4.20;99.90;3.30;99416;;;;572768;246;24121;-77
2022/03/29 04:01:19;;;;;;;20.33;9.17;;;4.20;99.90;3.30;99415;;;;573118;246;28360;-77
2022/03/29 04:03:47;;;;;;;15.43;8.80;;;4.20;99.90;3.20;99420;;;;573178;246;25148;-77
2022/03/29 04:06:15;;;;;;;13.90;8.07;;;4.10;99.90;3.20;99411;;;;573042;246;24140;-79
2022/03/29 04:08:46;;;;;;;20.83;9.30;;;4.10;99.90;3.20;99421;;;;573160;246;25142;-79
2022/03/29 04:11:11;;;;;;;21.87;9.00;;;4.10;99.90;3.20;99419;;;;572853;246;24206;-77
2022/03/29 04:13:39;;;;;;;16.53;7.70;;;4.00;99.90;3.10;99416;;;;573112;246;24136;-78
2022/03/29 04:16:07;;;;;;;28.13;9.07;;;4.00;99.90;3.10;99423;;;;573019;246;24105;-77
2022/03/29 04:18:35;;;;;;;22.03;8.63;;;4.00;99.90;3.10;99416;;;;573170;246;24064;-77
2022/03/29 04:21:05;;;;;;;18.73;8.47;;;4.00;99.90;3.10;99416;;;;573194;244;24092;-76
2022/03/29 04:23:30;;;;;;;17.63;9.20;;;4.00;99.90;3.00;99410;;;;574467;246;24125;-76
2022/03/29 04:25:58;;;;;;;15.63;8.93;;;4.00;99.90;3.00;99408;;;;574314;246;24048;-80
2022/03/29 04:28:26;;;;;;;17.40;8.00;;;3.90;99.90;3.00;99415;;;;574059;246;24078;-79
2022/03/29 04:30:55;;;;;;;15.30;9.27;;;3.90;99.90;2.90;99417;;;;573933;246;24102;-79
2022/03/29 04:33:25;;;;;;;17.17;7.67;;;3.90;99.90;2.90;99411;;;;573531;246;24058;-77
2022/03/29 04:35:54;;;;;;;19.73;9.00;;;3.80;99.90;2.90;99411;;;;573730;246;25139;-77
2022/03/29 04:38:25;;;;;;;28.27;11.87;;;3.70;99.90;2.80;99420;;;;573181;246;24077;-77
2022/03/29 04:40:49;;;;;;;19.50;11.43;;;3.70;99.90;2.80;99424;;;;572677;246;24151;-78
2022/03/29 04:43:17;;;;;;;25.40;12.80;;;3.70;99.90;2.80;99424;;;;573010;246;24108;-79
2022/03/29 04:45:45;;;;;;;22.67;12.67;;;3.70;99.90;2.70;99422;;;;572996;246;24181;-78
2022/03/29 04:48:14;;;;;;;21.97;13.27;;;3.70;99.90;2.70;99425;;;;582987;246;24095;-77
2022/03/29 04:50:42;;;;;;;23.00;12.77;;;3.60;99.90;2.70;99420;;;;582648;246;24134;-78
2022/03/29 04:53:13;;;;;;;22.37;13.27;;;3.60;99.90;2.70;99426;;;;582791;246;24081;-77
2022/03/29 04:55:37;;;;;;;22.23;13.37;;;3.60;99.90;2.70;99422;;;;582619;246;24103;-77
2022/03/29 04:58:05;;;;;;;22.13;14.00;;;3.60;99.90;2.70;99428;;;;582667;246;24111;-78
2022/03/29 05:00:33;;;;;;;30.10;14.80;;;3.60;99.90;2.80;99434;;;;582766;246;24083;-77
2022/03/29 05:03:01;;;;;;;22.20;13.83;;;3.70;99.90;2.80;99436;;;;583028;246;24077;-79
2022/03/29 05:05:29;;;;;;;26.13;13.60;;;3.70;99.90;2.90;99434;;;;583029;246;24080;-78
2022/03/29 05:07:57;;;;;;;21.57;12.70;;;3.80;99.90;3.00;99433;;;;582948;246;24072;-79
2022/03/29 05:10:25;;;;;;;24.60;13.07;;;4.00;99.90;3.20;99440;;;;582920;246;24080;-81
2022/03/29 05:12:55;;;;;;;24.40;9.53;;;4.00;99.90;3.40;99432;;;;582900;246;24110;-78
2022/03/29 05:15:22;;;;;;;17.20;9.97;;;4.20;99.90;3.60;99440;;;;582802;246;24091;-77
2022/03/29 05:17:49;;;;;;;25.37;9.13;;;4.40;99.90;3.70;99447;;;;582849;246;24076;-77
2022/03/29 05:20:17;;;;;;;19.97;9.07;;;4.60;99.90;3.90;99437;;;;582956;246;24079;-77
2022/03/29 05:22:45;;;;;;;14.53;8.50;;;4.70;99.90;4.00;99441;;;;582845;246;24165;-77
2022/03/29 05:25:15;;;;;;;17.23;9.07;;;4.90;99.90;4.20;99437;;;;582774;246;24112;-78
2022/03/29 05:27:40;;;;;;;19.13;8.57;;;5.00;99.90;4.40;99438;;;;582699;246;24105;-78
2022/03/29 05:30:08;;;;;;;20.10;8.83;;;5.20;99.90;4.60;99439;;;;582924;246;24184;-77
2022/03/29 05:32:36;;;;;;;16.73;9.13;;;5.40;99.90;5.00;99443;;;;582592;244;24112;-79
2022/03/29 05:35:04;;;;;;;23.77;11.07;;;5.70;99.90;5.40;99445;;;;578807;245;35144;-77
2022/03/29 05:37:32;;;;;;;29.23;11.55;;;6.10;99.90;5.80;99452;;;;578416;246;35194;-77
2022/03/29 05:40:00;;;;;;;22.17;12.45;;;6.50;99.90;6.10;99454;;;;578165;246;35155;-78
2022/03/29 05:42:28;;;;;;;16.70;8.83;;;6.80;99.90;6.30;99459;;;;583329;246;24103;-78
2022/03/29 05:44:58;;;;;;;16.33;7.47;;;7.10;99.90;6.80;99465;;;;583056;246;24109;-78
2022/03/29 05:50:09;;;;;;;18.23;7.07;;;7.90;99.90;7.80;99465;;;;583053;246;24083;-77
2022/03/29 05:52:38;;;;;;;16.97;6.33;;;8.40;99.90;8.30;99474;;;;583280;246;24100;-78
2022/03/29 05:55:05;;;;;;;12.57;6.93;;;8.90;99.90;8.80;99465;;;;583196;246;24087;-77
2022/03/29 05:57:34;;;;;;;12.40;6.30;;;9.40;99.90;9.20;99470;;;;583247;246;24110;-77
2022/03/29 06:00:01;;;;;;;10.67;6.40;;;9.80;99.90;9.40;99478;;;;583086;246;24146;-77
2022/03/29 06:02:29;;;;;;;22.67;7.00;;;10.00;99.90;9.60;99474;;;;582619;246;24119;-77
2022/03/29 06:04:57;;;;;;;18.70;6.43;;;10.20;99.90;9.80;99486;;;;583066;246;24072;-79
2022/03/29 06:07:25;;;;;;;12.67;6.70;;;10.40;99.90;10.10;99477;;;;583180;246;24130;-78
2022/03/29 06:09:52;;;;;;;19.47;7.43;;;10.70;99.90;10.70;99490;;;;583052;246;24121;-78
2022/03/29 06:12:24;;;;;;;14.27;6.47;;;11.20;99.90;11.60;99487;;;;582959;246;24079;-79
2022/03/29 06:14:48;;;;;;;27.40;6.93;;;12.00;99.90;12.70;99490;;;;582546;246;24082;-81
2022/03/29 06:17:16;;;;;;;11.73;6.53;;;13.00;99.90;13.70;99483;;;;582914;246;24096;-81
2022/03/29 06:19:48;;;;;;;21.33;7.03;;;14.00;99.90;14.80;99492;;;;583224;246;24083;-81
2022/03/29 06:22:12;;;;;;;9.43;5.63;;;15.10;99.90;15.60;99494;;;;583008;245;24110;-79
2022/03/29 06:24:40;;;;;;;10.77;5.77;;;16.00;93.80;16.00;99500;;;;583070;246;24119;-80
2022/03/29 06:27:08;;;;;;;9.83;5.63;;;16.50;90.00;16.30;99496;;;;582936;246;24068;-79
2022/03/29 06:29:35;;;;;;;14.07;5.17;;;16.90;84.10;16.70;99500;;;;582958;246;24075;-78
2022/03/29 06:32:03;;;;;;;10.27;5.33;;;17.20;78.80;17.20;99506;;;;582979;246;24096;-79
2022/03/29 06:34:32;;;;;;;11.93;5.03;;;18.40;70.30;17.90;99507;;;;582893;246;24073;-79
2022/03/29 06:37:00;;;;;;;11.87;5.13;;;18.30;69.30;18.10;99508;;;;582922;246;24138;-79
2022/03/29 06:39:30;;;;;;;10.57;4.67;;;18.70;65.30;18.10;99509;;;;583069;246;24143;-81
2022/03/29 06:41:56;;;;;;;16.37;4.87;;;18.70;61.60;18.30;99510;;;;582647;246;24045;-78
2022/03/29 06:44:24;;;;;;;21.17;5.30;;;19.30;58.60;18.90;99520;;;;582784;244;24097;-81
2022/03/29 06:46:52;;;;;;;11.20;5.17;;;19.20;58.50;19.80;99520;;;;584135;245;24110;-78
2022/03/29 06:49:20;;;;;;;9.10;4.80;;;20.00;56.90;20.50;99528;;;;583529;246;23109;-79
2022/03/29 06:51:48;;;;;;;17.47;4.73;;;20.80;55.10;21.30;99524;;;;583759;246;24150;-79
2022/03/29 06:54:16;;;;;;;11.30;4.73;;;21.60;53.20;22.70;99535;;;;583642;246;24081;-79
2022/03/29 06:56:44;;;;;;;6.60;4.13;;;24.10;47.90;24.00;99538;;;;583502;246;24080;-80
2022/03/29 06:59:12;;;;;;;6.87;4.47;;;24.10;47.90;24.30;99543;;;;583490;246;24115;-80
2022/03/29 07:01:40;;;;;;;8.63;4.20;;;24.70;45.20;24.80;99543;;;;583523;246;24076;-79
2022/03/29 07:04:09;;;;;;;15.17;4.40;;;25.20;44.20;25.40;99555;;;;582984;246;24072;-79
2022/03/29 07:06:36;;;;;;;18.33;5.13;;;25.80;42.90;25.00;99552;;;;582699;246;25140;-78
2022/03/29 07:11:51;;;;;;;11.53;3.20;;;25.30;40.50;24.80;99563;;;;582833;246;24140;-80
2022/03/29 07:14:19;;;;;;;7.20;3.33;;;25.40;39.40;23.80;99570;;;;582969;246;23374;-77
2022/03/29 07:16:47;;;;;;;11.53;3.07;;;24.80;38.70;22.40;99566;;;;583161;246;23093;-78
2022/03/29 07:19:14;;;;;;;5.70;2.90;;;23.60;39.00;21.20;99566;;;;583175;246;24086;-78
2022/03/29 07:21:43;;;;;;;5.53;3.10;;;22.40;40.60;20.70;99567;;;;583002;246;24069;-81
2022/03/29 07:24:11;;;;;;;7.77;2.40;;;21.50;41.90;20.30;99571;;;;582913;246;24093;-81
2022/03/29 07:26:40;;;;;;;4.23;2.20;;;21.00;42.00;19.70;99573;;;;582798;246;24091;-78
2022/03/29 07:29:10;;;;;;;6.07;2.60;;;20.40;42.10;19.30;99560;;;;582851;246;24057;-78
2022/03/29 07:31:34;;;;;;;16.63;3.40;;;20.00;42.60;19.20;99563;;;;582512;246;24071;-77
2022/03/29 07:34:02;;;;;;;19.17;3.50;;;19.70;43.30;19.50;99551;;;;582887;246;24106;-77
2022/03/29 07:36:30;;;;;;;4.60;2.73;;;19.80;43.50;20.60;99561;;;;582831;246;24093;-78
2022/03/29 07:38:57;;;;;;;8.57;2.43;;;20.60;42.40;21.40;99560;;;;582833;246;24080;-78
2022/03/29 07:41:25;;;;;;;6.50;2.07;;;21.60;40.30;22.30;99566;;;;582410;246;26276;-78
2022/03/29 07:43:54;;;;;;;6.03;2.47;;;22.50;39.00;23.90;99563;;;;582585;246;24135;-78
2022/03/29 07:46:24;;;;;;;6.93;2.70;;;23.90;38.00;25.70;99565;;;;582475;246;23081;-79
2022/03/29 07:48:49;;;;;;;8.17;2.50;;;25.60;36.70;27.10;99567;;;;582188;246;23130;-78
2022/03/29 07:51:17;;;;;;;13.53;3.07;;;27.10;34.70;27.80;99575;;;;582926;246;23079;-81
2022/03/29 07:53:47;;;;;;;4.80;2.10;;;29.20;32.00;28.70;99573;;;;582862;246;23082;-80
2022/03/29 07:56:13;;;;;;;13.10;3.10;;;29.00;31.90;29.40;99580;;;;583252;244;23076;-79
2022/03/29 07:58:41;;;;;;;7.30;2.62;;;29.90;31.80;29.20;99572;;;;584205;245;23085;-79
2022/03/29 08:01:09;;;;;;;6.43;2.80;;;30.00;31.30;28.80;99572;;;;583812;246;24111;-81
2022/03/29 08:03:37;;;;;;;4.32;2.37;;;29.70;31.70;28.70;99573;;;;583706;246;24161;-78
2022/03/29 08:06:06;;;;;;;18.40;2.72;;;29.20;31.70;28.20;99577;;;;583051;246;23097;-80
2022/03/29 08:08:34;;;;;;;10.18;2.47;;;29.20;31.60;28.60;99578;;;;583131;246;23147;-80
2022/03/29 08:11:05;;;;;;;5.60;2.85;;;29.20;31.50;28.90;99581;;;;583035;246;23082;-82
2022/03/29 08:13:30;;;;;;;14.98;3.42;;;29.50;31.60;28.70;99590;;;;582806;246;23109;-82
2022/03/29 08:15:58;;;;;;;6.85;2.87;;;29.50;31.40;28.80;99582;;;;582638;246;23078;-81
2022/03/29 08:18:26;;;;;;;30.23;4.20;;;29.40;31.30;28.60;99585;;;;583273;246;24111;-78
2022/03/29 08:20:54;;;;;;;19.02;3.40;;;29.40;31.10;28.20;99584;;;;583054;246;23092;-82
2022/03/29 08:23:25;;;;;;;12.05;2.90;;;28.90;31.50;28.30;99581;;;;583595;246;23082;-81
2022/03/29 08:25:50;;;;;;;8.43;2.50;;;28.90;31.50;28.60;99574;;;;583038;246;23119;-81
2022/03/29 08:28:21;;;;;;;8.73;2.67;;;29.20;31.10;28.40;99575;;;;582837;246;23082;-79
2022/03/29 08:30:46;;;;;;;10.18;3.62;;;29.30;31.00;28.30;99578;;;;582785;246;23078;-81
2022/03/29 08:33:15;;;;;;;5.62;3.03;;;29.30;30.70;28.40;99576;;;;577589;246;35161;-80
2022/03/29 08:35:44;;;;;;;4.60;2.70;;;29.30;30.70;27.80;99584;;;;582470;246;23125;-80
2022/03/29 08:38:10;;;;;;;10.27;3.72;;;28.90;30.70;26.40;99575;;;;582548;246;23132;-81
2022/03/29 08:40:38;;;;;;;12.00;2.90;;;27.90;30.90;25.20;99579;;;;582499;246;23114;-80
2022/03/29 08:43:08;;;;;;;8.03;2.77;;;26.80;31.40;24.20;99571;;;;582594;246;24087;-80
2022/03/29 08:45:35;;;;;;;5.33;2.20;;;24.80;33.70;23.50;99579;;;;582472;246;24081;-81
2022/03/29 08:48:03;;;;;;;3.60;2.23;;;24.70;33.60;22.50;99585;;;;582805;246;24080;-81
2022/03/29 08:50:35;;;;;;;6.37;2.10;;;23.90;35.10;21.50;99591;;;;582812;246;24111;-82
2022/03/29 08:52:58;;;;;;;5.13;2.03;;;22.90;37.10;21.10;99590;;;;582502;246;24103;-82
2022/03/29 08:55:27;;;;;;;12.07;2.17;;;22.20;38.40;21.00;99589;;;;583180;246;24103;-81
2022/03/29 08:57:55;;;;;;;5.73;1.80;;;21.70;39.50;21.00;99584;;;;582870;246;24069;-77
2022/03/29 09:00:26;;;;;;;4.90;2.20;;;21.70;39.40;21.20;99582;;;;582673;246;24123;-77
2022/03/29 09:02:54;;;;;;;4.50;1.90;;;21.80;39.40;21.40;99587;;;;582232;245;24119;-77
2022/03/29 09:05:21;;;;;;;6.97;1.67;;;22.10;39.10;21.50;99583;;;;582151;245;24101;-78
2022/03/29 09:07:54;;;;;;;3.53;2.00;;;22.40;38.80;22.10;99579;;;;583434;244;24082;-78
2022/03/29 09:10:23;;;;;;;5.63;2.20;;;23.10;38.30;22.10;99581;;;;583293;246;24060;-76
2022/03/29 09:12:51;;;;;;;5.13;1.77;;;23.00;38.20;22.00;99576;;;;581508;246;24095;-78
2022/03/29 09:15:19;;;;;;;10.77;2.60;;;23.00;38.00;21.60;99571;;;;583798;246;24107;-77
2022/03/29 09:17:49;;;;;;;3.27;1.70;;;22.80;38.00;22.20;99576;;;;583613;246;24068;-78
2022/03/29 09:20:21;;;;;;;5.80;2.10;;;23.20;37.70;22.90;99577;;;;582721;246;24151;-79
2022/03/29 09:22:48;;;;;;;3.10;1.93;;;23.80;37.50;23.20;99566;;;;583228;246;24068;-78
2022/03/29 09:25:22;;;;;;;4.07;1.90;;;24.40;36.40;23.10;99572;;;;582888;246;24135;-78
2022/03/29 09:27:59;;;;;;;7.87;2.73;;;24.30;36.30;22.90;99578;;;;582195;246;24074;-81
2022/03/29 09:30:27;;;;;;;5.20;1.90;;;24.30;36.30;22.50;99571;;;;582499;246;24091;-77
2022/03/29 09:32:58;;;;;;;7.43;2.07;;;24.00;36.40;22.70;99569;;;;582484;246;24081;-78
2022/03/29 09:35:28;;;;;;;7.07;2.33;;;24.00;36.20;22.50;99568;;;;582409;246;24064;-81
2022/03/29 09:37:53;;;;;;;8.20;2.27;;;24.00;36.20;23.00;99570;;;;582411;246;24099;-81
2022/03/29 09:40:21;;;;;;;4.73;2.27;;;24.20;37.00;23.80;99569;;;;583200;246;24177;-81
2022/03/29 09:43:01;;;;;;;19.25;3.78;;;24.70;36.70;24.50;99571;;;;577975;246;35149;-82
2022/03/29 09:45:48;;;;;;;8.93;2.17;;;25.50;34.50;24.20;99574;;;;582104;246;23122;-82
2022/03/29 09:48:19;;;;;;;4.43;1.87;;;25.40;34.50;23.70;99563;;;;582978;246;23140;-77
2022/03/29 09:50:51;;;;;;;9.67;1.83;;;24.80;34.80;23.00;99572;;;;582072;246;23129;-76
2022/03/29 09:53:36;;;;;;;5.60;1.77;;;24.80;34.80;22.10;99572;;;;582202;245;23125;-82
2022/03/29 09:56:04;;;;;;;5.97;2.03;;;24.00;35.40;22.10;99571;;;;582232;246;24128;-80
2022/03/29 09:58:33;;;;;;;10.13;2.00;;;23.60;36.30;22.10;99564;;;;582469;246;24067;-82
2022/03/29 10:01:00;;;;;;;14.80;2.57;;;23.40;36.50;22.00;99563;;;;582256;246;24078;-83
2022/03/29 10:03:28;;;;;;;10.03;2.47;;;23.40;36.80;22.30;99556;;;;582193;246;24061;-84
2022/03/29 10:05:53;;;;;;;69.83;7.13;;;23.60;36.60;22.90;99565;;;;582488;246;24098;-82
2022/03/29 10:11:11;;;;;;;6.63;2.10;;;25.20;34.70;23.90;99550;;;;583293;246;24072;-81
2022/03/29 10:13:36;;;;;;;8.50;2.17;;;25.20;34.70;23.60;99554;;;;582930;246;24067;-83
2022/03/29 10:16:07;;;;;;;6.83;2.40;;;25.20;35.00;23.10;99566;;;;583354;246;24061;-83
2022/03/29 10:18:32;;;;;;;8.33;2.10;;;24.90;35.20;22.40;99553;;;;582586;246;24057;-82
2022/03/29 10:21:03;;;;;;;4.30;1.67;;;24.30;35.90;21.20;99562;;;;584444;244;24078;-80
2022/03/29 10:23:29;;;;;;;2.07;1.30;;;21.70;37.90;19.60;99553;;;;583560;246;24077;-79
2022/03/29 10:26:06;;;;;;;7.87;2.00;;;21.70;37.90;17.90;99563;;;;583429;246;24064;-81
2022/03/29 10:28:30;;;;;;;4.47;1.60;;;20.20;40.10;16.80;99552;;;;582127;245;24056;-80
2022/03/29 10:30:55;;;;;;;2.27;1.43;;;18.80;42.10;16.00;99539;;;;582868;246;24054;-81
2022/03/29 10:33:26;;;;;;;10.77;1.77;;;16.80;45.70;15.30;99549;;;;583516;246;24084;-80
2022/03/29 10:36:00;;;;;;;2.07;1.33;;;16.70;45.60;14.90;99545;;;;583143;246;24094;-81
2022/03/29 10:38:47;;;;;;;4.03;1.63;;;16.20;46.80;14.70;99540;;;;583327;246;24092;-81
2022/03/29 10:41:27;;;;;;;6.20;1.77;;;15.70;47.70;14.40;99550;;;;583105;246;24074;-81
2022/03/29 10:44:04;;;;;;;12.30;2.03;;;15.30;48.70;14.30;99540;;;;583239;246;24083;-82
2022/03/29 10:46:45;;;;;;;9.90;1.13;;;15.10;49.50;14.20;99551;;;;582771;245;24082;-81
2022/03/29 10:49:28;;;;;;;5.47;1.23;;;15.00;49.30;14.00;99536;;;;583045;246;24067;-80
2022/03/29 10:52:00;;;;;;;1.80;1.10;;;14.80;49.40;13.70;99538;;;;583390;246;24068;-81
2022/03/29 10:54:28;;;;;;;5.70;1.33;;;14.60;49.40;13.10;99530;;;;579209;246;24138;-80
2022/03/29 10:57:20;;;;;;;5.20;1.30;;;14.20;49.80;12.70;99534;;;;583350;246;24118;-79
2022/03/29 10:59:45;;;;;;;3.97;1.20;;;13.80;51.00;12.40;99536;;;;583122;246;24072;-81
2022/03/29 11:02:21;;;;;;;3.20;1.33;;;13.20;52.40;12.20;99548;;;;582764;246;24091;-80
2022/03/29 11:05:06;;;;;;;1.53;0.87;;;13.10;52.30;11.90;99537;;;;583361;246;24084;-82
2022/03/29 11:07:40;;;;;;;6.47;1.40;;;12.90;53.00;11.60;99540;;;;583611;245;24083;-81
2022/03/29 11:10:20;;;;;;;5.87;1.20;;;12.30;54.80;11.40;99527;;;;580983;246;24080;-82
2022/03/29 11:12:46;;;;;;;8.53;1.13;;;12.30;54.80;11.30;99527;;;;583250;246;24068;-81
2022/03/29 11:15:25;;;;;;;4.20;0.97;;;12.20;54.90;11.00;99525;;;;582393;245;24134;-81
2022/03/29 11:17:56;;;;;;;1.20;1.10;;;11.80;54.50;10.80;99527;;;;583479;246;24083;-81
2022/03/29 11:20:29;;;;;;;2.93;1.00;;;11.70;54.50;10.80;99530;;;;583587;246;24114;-80
2022/03/29 11:23:05;;;;;;;2.53;0.90;;;11.50;54.40;10.50;99519;;;;583087;246;24087;-82
2022/03/29 11:25:30;;;;;;;12.83;1.23;;;11.50;54.40;10.40;99516;;;;583023;246;24064;-79
2022/03/29 11:28:09;;;;;;;13.47;1.37;;;11.30;54.90;10.50;99502;;;;583845;246;24093;-81
2022/03/29 11:30:41;;;;;;;2.20;0.83;;;11.30;55.90;10.60;99509;;;;584017;244;24063;-78
2022/03/29 11:33:05;;;;;;;2.73;0.80;;;11.30;56.50;10.60;99514;;;;585064;244;24074;-78
2022/03/29 11:35:33;;;;;;;4.03;1.00;;;11.40;56.30;10.50;99501;;;;584476;246;24079;-81
2022/03/29 11:38:07;;;;;;;4.90;1.20;;;11.30;56.50;10.50;99505;;;;583946;246;24105;-81